createdAt,value
2023-02-09T00:00:02.012Z,86.8
2023-02-09T00:05:00.138Z,86.6
2023-02-09T00:10:00.127Z,86.6
2023-02-09T00:15:00.163Z,87
2023-02-09T00:20:00.133Z,87.2
2023-02-09T00:25:00.117Z,87.2
2023-02-09T00:30:00.139Z,88
2023-02-09T00:35:00.210Z,87.8
2023-02-09T00:40:00.118Z,87.8
2023-02-09T00:45:00.125Z,88.1
2023-02-09T00:50:00.156Z,88
2023-02-09T00:55:00.146Z,88.1
2023-02-09T01:00:00.197Z,88.3
2023-02-09T01:05:00.171Z,88.6
2023-02-09T01:10:00.136Z,89
2023-02-09T01:15:00.139Z,89.3
2023-02-09T01:20:00.152Z,89.1
2023-02-09T01:25:00.115Z,89.2
2023-02-09T01:30:00.137Z,89.1
2023-02-09T01:35:00.142Z,89.5
2023-02-09T01:40:00.122Z,89.8
2023-02-09T01:45:00.135Z,88.7
2023-02-09T01:50:00.141Z,89.5
2023-02-09T01:55:00.147Z,89.8
2023-02-09T02:00:00.184Z,89.5
2023-02-09T02:05:00.120Z,89.7
2023-02-09T02:10:00.145Z,89.2
2023-02-09T02:15:00.138Z,88.3
2023-02-09T02:20:00.129Z,89.3
2023-02-09T02:25:00.127Z,89.1
2023-02-09T02:30:00.156Z,89.5
2023-02-09T02:35:00.119Z,89.6
2023-02-09T02:40:00.149Z,89.7
2023-02-09T02:45:00.113Z,89.1
2023-02-09T02:50:00.125Z,88.7
2023-02-09T02:55:00.134Z,88.5
2023-02-09T03:00:00.121Z,88.1
2023-02-09T03:05:00.199Z,89.4
2023-02-09T03:10:02.031Z,90.3
2023-02-09T03:15:00.148Z,90.4
2023-02-09T03:20:00.118Z,90.3
2023-02-09T03:25:00.119Z,90.2
2023-02-09T03:30:00.178Z,90
2023-02-09T03:35:00.129Z,90.3
2023-02-09T03:40:00.123Z,90.3
2023-02-09T03:45:00.104Z,90.3
2023-02-09T03:50:00.242Z,90.2
2023-02-09T03:55:00.130Z,90.5
2023-02-09T04:00:00.234Z,90.8
2023-02-09T04:05:00.107Z,90.7
2023-02-09T04:10:00.152Z,90.6
2023-02-09T04:15:00.156Z,90.5
2023-02-09T04:20:00.132Z,90.4
2023-02-09T04:25:00.134Z,90.3
2023-02-09T04:30:00.154Z,90.1
2023-02-09T04:35:00.129Z,90
2023-02-09T04:40:00.148Z,89.8
2023-02-09T04:45:00.121Z,89.3
2023-02-09T04:50:00.167Z,88.9
2023-02-09T04:55:00.145Z,88.8
2023-02-09T05:00:00.154Z,88.9
2023-02-09T05:05:00.107Z,88.6
2023-02-09T05:10:00.121Z,88.6
2023-02-09T05:15:00.122Z,88.6
2023-02-09T05:20:00.128Z,88.7
2023-02-09T05:25:00.108Z,88.5
2023-02-09T05:30:00.174Z,88.4
2023-02-09T05:35:00.159Z,88.5
2023-02-09T05:40:00.156Z,88.5
2023-02-09T05:45:00.107Z,88.5
2023-02-09T05:50:00.133Z,88.5
2023-02-09T05:55:00.129Z,88.5
2023-02-09T06:00:00.209Z,87.8
2023-02-09T06:05:00.111Z,88.5
2023-02-09T06:10:00.135Z,88.7
2023-02-09T06:15:00.183Z,89
2023-02-09T06:20:00.125Z,88.9
2023-02-09T06:25:00.123Z,89
2023-02-09T06:30:00.186Z,89.5
2023-02-09T06:35:00.161Z,89.6
2023-02-09T06:40:00.126Z,89.9
2023-02-09T06:45:00.146Z,90
2023-02-09T06:50:00.137Z,90.1
2023-02-09T06:55:00.149Z,90
2023-02-09T07:00:00.161Z,89.3
2023-02-09T07:05:00.179Z,89
2023-02-09T07:10:00.140Z,88.7
2023-02-09T07:15:00.141Z,88.6
2023-02-09T07:20:00.118Z,87.1
2023-02-09T07:25:00.133Z,87.3
2023-02-09T07:30:01.118Z,87.1
2023-02-09T07:35:00.167Z,87
2023-02-09T07:40:00.139Z,87.1
2023-02-09T07:45:00.113Z,86.9
2023-02-09T07:50:00.154Z,86.9
2023-02-09T07:55:00.136Z,86.9
2023-02-09T08:00:00.169Z,87.1
2023-02-09T08:05:00.259Z,89.4
2023-02-09T08:10:00.187Z,88.2
2023-02-09T08:15:00.150Z,82.7
2023-02-09T08:20:00.178Z,74
2023-02-09T08:25:00.186Z,70.3
2023-02-09T08:30:00.134Z,68.6
2023-02-09T08:35:00.149Z,65.9
2023-02-09T08:40:00.138Z,63.9
2023-02-09T08:45:00.149Z,62
2023-02-09T08:50:00.192Z,60.1
2023-02-09T08:55:00.199Z,58
2023-02-09T09:00:00.252Z,57.8
2023-02-09T09:05:00.117Z,56.1
2023-02-09T09:10:00.148Z,55.6
2023-02-09T09:15:00.218Z,51.9
2023-02-09T09:20:00.199Z,46.8
2023-02-09T09:25:00.153Z,44.2
2023-02-09T09:30:00.141Z,41.9
2023-02-09T09:35:00.172Z,42.6
2023-02-09T09:40:00.148Z,43
2023-02-09T09:45:00.121Z,43.7
2023-02-09T09:50:00.147Z,42.6
2023-02-09T09:55:00.177Z,42.2
2023-02-09T10:00:00.129Z,43.7
2023-02-09T10:05:00.112Z,41
2023-02-09T10:10:00.140Z,41.2
2023-02-09T10:15:00.159Z,41.4
2023-02-09T10:20:00.168Z,41.5
2023-02-09T10:25:00.118Z,41.6
2023-02-09T10:30:00.159Z,40.5
2023-02-09T10:35:00.163Z,41.9
2023-02-09T10:40:00.164Z,41.3
2023-02-09T10:45:00.125Z,40.6
2023-02-09T10:50:00.161Z,39.9
2023-02-09T10:55:00.225Z,39.9
2023-02-09T11:00:00.134Z,39.2
2023-02-09T11:05:00.102Z,38.3
2023-02-09T11:10:00.191Z,38.9
2023-02-09T11:15:00.151Z,38.1
2023-02-09T11:20:00.133Z,39.7
2023-02-09T11:25:00.129Z,40.5
2023-02-09T11:30:00.138Z,35.4
2023-02-09T11:35:00.219Z,34.6
2023-02-09T11:40:00.155Z,34.7
2023-02-09T11:45:00.128Z,35.9
2023-02-09T11:50:00.189Z,36.3
2023-02-09T11:55:00.131Z,36.3
2023-02-09T12:00:00.138Z,35.3
2023-02-09T12:05:00.096Z,36.1
2023-02-09T12:10:00.130Z,37.4
2023-02-09T12:15:00.130Z,38.5
2023-02-09T12:20:00.125Z,38.2
2023-02-09T12:25:00.141Z,37.7
2023-02-09T12:30:00.151Z,38.3
2023-02-09T12:35:00.179Z,38.8
2023-02-09T12:40:00.282Z,39.1
2023-02-09T12:45:00.123Z,40.1
2023-02-09T12:50:00.182Z,40.5
2023-02-09T12:55:00.169Z,40.7
2023-02-09T13:00:00.168Z,40.8
2023-02-09T13:05:00.110Z,40
2023-02-09T13:10:00.149Z,41.8
2023-02-09T13:15:00.137Z,42.5
2023-02-09T13:20:00.168Z,43.1
2023-02-09T13:25:00.136Z,43.3
2023-02-09T13:30:00.205Z,43.7
2023-02-09T13:35:00.175Z,43.9
2023-02-09T13:40:00.128Z,43.6
2023-02-09T13:45:00.187Z,42.8
2023-02-09T13:50:00.255Z,42.7
2023-02-09T13:55:00.189Z,43.2
2023-02-09T14:00:00.143Z,43.6
2023-02-09T14:05:00.140Z,43.6
2023-02-09T14:10:00.146Z,43.8
2023-02-09T14:15:00.199Z,44
2023-02-09T14:20:00.202Z,44.1
2023-02-09T14:25:00.138Z,43.6
2023-02-09T14:30:00.151Z,43.6
2023-02-09T14:35:00.166Z,43.9
2023-02-09T14:40:00.157Z,43.8
2023-02-09T14:45:00.148Z,44.1
2023-02-09T14:50:00.205Z,44.2
2023-02-09T14:55:00.152Z,44.6
2023-02-09T15:00:00.216Z,45.5
2023-02-09T15:05:00.163Z,44.4
2023-02-09T15:10:00.121Z,46.6
2023-02-09T15:15:00.171Z,46.8
2023-02-09T15:20:00.166Z,47.5
2023-02-09T15:25:00.128Z,47.8
2023-02-09T15:30:02.398Z,48.3
2023-02-09T15:35:00.193Z,48.7
2023-02-09T15:40:00.136Z,48.6
2023-02-09T15:45:00.151Z,49.3
2023-02-09T15:50:00.172Z,49.8
2023-02-09T15:55:00.168Z,50.3
2023-02-09T16:00:00.164Z,50.5
2023-02-09T16:05:00.106Z,50.8
2023-02-09T16:10:00.160Z,51
2023-02-09T16:15:00.138Z,51.3
2023-02-09T16:20:00.108Z,51.7
2023-02-09T16:25:00.111Z,52.2
2023-02-09T16:30:00.157Z,52.8
2023-02-09T16:35:11.033Z,53.3
2023-02-09T16:40:00.208Z,53.9
2023-02-09T16:45:00.192Z,54.5
2023-02-09T16:50:00.209Z,55.6
2023-02-09T16:55:00.140Z,56.1
2023-02-09T17:00:00.360Z,56.7
2023-02-09T17:05:00.139Z,57.9
2023-02-09T17:10:00.167Z,58.7
2023-02-09T17:15:00.150Z,59.7
2023-02-09T17:20:00.141Z,60.3
2023-02-09T17:25:00.184Z,60.8
2023-02-09T17:30:00.158Z,61.8
2023-02-09T17:35:00.193Z,63
2023-02-09T17:40:00.124Z,63.5
2023-02-09T17:45:00.218Z,63.8
2023-02-09T17:50:00.151Z,65
2023-02-09T17:55:00.211Z,65.2
2023-02-09T18:00:00.182Z,65.7
2023-02-09T18:05:00.144Z,67
2023-02-09T18:10:00.175Z,66.8
2023-02-09T18:15:00.200Z,66.8
2023-02-09T18:20:00.165Z,66.9
2023-02-09T18:25:00.118Z,67.3
2023-02-09T18:30:00.162Z,67.6
2023-02-09T18:35:00.195Z,68.7
2023-02-09T18:40:00.117Z,68.4
2023-02-09T18:45:00.102Z,68.7
2023-02-09T18:50:00.135Z,68.4
2023-02-09T18:55:00.208Z,68.7
2023-02-09T19:00:00.160Z,69.3
2023-02-09T19:05:00.148Z,69
2023-02-09T19:10:00.162Z,69.1
2023-02-09T19:15:00.220Z,68.6
2023-02-09T19:20:00.135Z,68.7
2023-02-09T19:25:00.129Z,68.5
2023-02-09T19:30:00.204Z,68.4
2023-02-09T19:35:00.152Z,68.2
2023-02-09T19:40:00.144Z,68.1
2023-02-09T19:45:00.131Z,68.1
2023-02-09T19:50:00.136Z,68.3
2023-02-09T19:55:00.179Z,68.5
2023-02-09T20:00:00.187Z,68.8
2023-02-09T20:05:00.202Z,69.3
2023-02-09T20:10:00.137Z,69.6
2023-02-09T20:15:00.166Z,69.9
2023-02-09T20:20:00.191Z,70.4
2023-02-09T20:25:00.092Z,71
2023-02-09T20:30:00.155Z,71.9
2023-02-09T20:35:00.211Z,72.3
2023-02-09T20:40:00.137Z,73.4
2023-02-09T20:45:00.135Z,73.6
2023-02-09T20:50:00.354Z,73.9
2023-02-09T20:55:00.165Z,74.5
2023-02-09T21:00:00.159Z,75.1
2023-02-09T21:05:00.107Z,75.4
2023-02-09T21:10:00.144Z,75.7
2023-02-09T21:15:00.136Z,76
2023-02-09T21:20:00.116Z,76.2
2023-02-09T21:25:00.099Z,76.3
2023-02-09T21:30:00.167Z,76.5
2023-02-09T21:35:00.162Z,76.9
2023-02-09T21:40:00.146Z,76.8
2023-02-09T21:45:00.109Z,77
2023-02-09T21:50:00.159Z,77.3
2023-02-09T21:55:00.135Z,77.4
2023-02-09T22:00:00.204Z,77.5
2023-02-09T22:05:00.106Z,77.5
2023-02-09T22:10:00.116Z,77.5
2023-02-09T22:15:00.138Z,77.5
2023-02-09T22:20:00.135Z,77.6
2023-02-09T22:25:00.113Z,77.6
2023-02-09T22:30:00.137Z,77.7
2023-02-09T22:35:00.126Z,77.7
2023-02-09T22:40:00.130Z,77.8
2023-02-09T22:45:00.101Z,77.9
2023-02-09T22:50:00.104Z,77.9
2023-02-09T22:55:00.122Z,77.9
2023-02-09T23:00:00.185Z,78.1
2023-02-09T23:05:00.107Z,78.1
2023-02-09T23:10:00.129Z,78.3
2023-02-09T23:15:00.174Z,78.4
2023-02-09T23:20:00.122Z,78.5
2023-02-09T23:25:01.622Z,78.5
2023-02-09T23:30:00.139Z,78
2023-02-09T23:40:00.132Z,78.5
2023-02-09T23:45:00.161Z,78.3
2023-02-09T23:50:00.143Z,78.2
2023-02-09T23:55:00.210Z,78.3
